sensor_id;sensor_type;location;lat;lon;timestamp;P1;durP1;ratioP1;P2;durP2;ratioP2
4555;SDS011;2290;48.674;9.018;2023-07-20T00:01:10;3.90;;;2.40;;
4555;SDS011;2290;48.674;9.018;2023-07-20T00:03:36;4.10;;;2.47;;
4555;SDS011;2290;48.674;9.018;2023-07-20T00:06:01;3.87;;;2.50;;
4555;SDS011;2290;48.674;9.018;2023-07-20T00:08:29;3.80;;;2.60;;
4555;SDS011;2290;48.674;9.018;2023-07-20T00:10:55;3.10;;;2.30;;
4555;SDS011;2290;48.674;9.018;2023-07-20T00:13:21;4.03;;;2.30;;
4555;SDS011;2290;48.674;9.018;2023-07-20T00:15:47;4.67;;;2.60;;
4555;SDS011;2290;48.674;9.018;2023-07-20T00:18:12;2.87;;;2.37;;
4555;SDS011;2290;48.674;9.018;2023-07-20T00:20:39;3.00;;;2.27;;
4555;SDS011;2290;48.674;9.018;2023-07-20T00:23:05;4.83;;;3.00;;
4555;SDS011;2290;48.674;9.018;2023-07-20T00:25:31;2.70;;;2.10;;
4555;SDS011;2290;48.674;9.018;2023-07-20T00:27:56;3.33;;;2.57;;
4555;SDS011;2290;48.674;9.018;2023-07-20T00:30:22;3.43;;;2.43;;
4555;SDS011;2290;48.674;9.018;2023-07-20T00:32:47;6.20;;;2.90;;
4555;SDS011;2290;48.674;9.018;2023-07-20T00:35:13;3.63;;;2.50;;
4555;SDS011;2290;48.674;9.018;2023-07-20T00:37:39;2.97;;;2.50;;
4555;SDS011;2290;48.674;9.018;2023-07-20T00:40:05;3.50;;;2.83;;
4555;SDS011;2290;48.674;9.018;2023-07-20T00:42:32;3.00;;;2.50;;
4555;SDS011;2290;48.674;9.018;2023-07-20T00:44:58;4.33;;;2.50;;
4555;SDS011;2290;48.674;9.018;2023-07-20T00:47:23;3.53;;;2.20;;
4555;SDS011;2290;48.674;9.018;2023-07-20T00:49:49;3.20;;;2.50;;
4555;SDS011;2290;48.674;9.018;2023-07-20T00:52:16;4.63;;;2.20;;
4555;SDS011;2290;48.674;9.018;2023-07-20T00:54:43;3.50;;;2.53;;
4555;SDS011;2290;48.674;9.018;2023-07-20T00:57:09;3.10;;;2.23;;
4555;SDS011;2290;48.674;9.018;2023-07-20T00:59:37;3.17;;;2.20;;
4555;SDS011;2290;48.674;9.018;2023-07-20T01:02:03;4.20;;;2.40;;
4555;SDS011;2290;48.674;9.018;2023-07-20T01:04:29;2.93;;;2.30;;
4555;SDS011;2290;48.674;9.018;2023-07-20T01:06:58;3.70;;;2.60;;
4555;SDS011;2290;48.674;9.018;2023-07-20T01:09:38;3.20;;;2.30;;
4555;SDS011;2290;48.674;9.018;2023-07-20T01:14:42;3.00;;;2.40;;
4555;SDS011;2290;48.674;9.018;2023-07-20T01:17:07;3.13;;;2.73;;
4555;SDS011;2290;48.674;9.018;2023-07-20T01:19:33;3.40;;;2.30;;
4555;SDS011;2290;48.674;9.018;2023-07-20T01:22:01;2.53;;;2.27;;
4555;SDS011;2290;48.674;9.018;2023-07-20T01:33:07;2.97;;;2.70;;
4555;SDS011;2290;48.674;9.018;2023-07-20T01:35:33;4.77;;;2.20;;
4555;SDS011;2290;48.674;9.018;2023-07-20T01:38:01;4.67;;;2.17;;
4555;SDS011;2290;48.674;9.018;2023-07-20T01:40:28;3.60;;;2.10;;
4555;SDS011;2290;48.674;9.018;2023-07-20T01:42:54;3.57;;;2.07;;
4555;SDS011;2290;48.674;9.018;2023-07-20T01:45:20;2.37;;;2.00;;
4555;SDS011;2290;48.674;9.018;2023-07-20T01:47:47;2.47;;;2.03;;
4555;SDS011;2290;48.674;9.018;2023-07-20T01:50:12;2.63;;;2.30;;
4555;SDS011;2290;48.674;9.018;2023-07-20T01:52:38;2.43;;;1.90;;
4555;SDS011;2290;48.674;9.018;2023-07-20T01:55:05;1.80;;;1.60;;
4555;SDS011;2290;48.674;9.018;2023-07-20T01:57:32;3.00;;;2.10;;
4555;SDS011;2290;48.674;9.018;2023-07-20T01:59:57;2.90;;;2.20;;
4555;SDS011;2290;48.674;9.018;2023-07-20T02:02:26;2.53;;;2.17;;
4555;SDS011;2290;48.674;9.018;2023-07-20T02:04:52;2.70;;;2.00;;
4555;SDS011;2290;48.674;9.018;2023-07-20T02:07:18;4.33;;;2.40;;
4555;SDS011;2290;48.674;9.018;2023-07-20T02:09:44;2.50;;;2.20;;
4555;SDS011;2290;48.674;9.018;2023-07-20T02:12:10;3.43;;;2.17;;
4555;SDS011;2290;48.674;9.018;2023-07-20T02:14:35;2.80;;;1.87;;
4555;SDS011;2290;48.674;9.018;2023-07-20T02:17:01;3.63;;;2.00;;
4555;SDS011;2290;48.674;9.018;2023-07-20T02:19:27;2.43;;;2.03;;
4555;SDS011;2290;48.674;9.018;2023-07-20T02:21:55;3.63;;;2.20;;
4555;SDS011;2290;48.674;9.018;2023-07-20T02:24:21;2.80;;;2.50;;
4555;SDS011;2290;48.674;9.018;2023-07-20T02:26:46;3.20;;;2.30;;
4555;SDS011;2290;48.674;9.018;2023-07-20T02:29:12;3.00;;;2.10;;
4555;SDS011;2290;48.674;9.018;2023-07-20T02:31:38;4.80;;;2.13;;
4555;SDS011;2290;48.674;9.018;2023-07-20T02:34:07;3.77;;;2.07;;
4555;SDS011;2290;48.674;9.018;2023-07-20T02:36:34;4.70;;;2.30;;
4555;SDS011;2290;48.674;9.018;2023-07-20T02:39:00;4.23;;;2.30;;
4555;SDS011;2290;48.674;9.018;2023-07-20T02:41:28;2.70;;;2.20;;
4555;SDS011;2290;48.674;9.018;2023-07-20T02:43:55;4.13;;;2.40;;
4555;SDS011;2290;48.674;9.018;2023-07-20T02:46:21;3.13;;;2.30;;
4555;SDS011;2290;48.674;9.018;2023-07-20T02:48:47;3.70;;;2.33;;
4555;SDS011;2290;48.674;9.018;2023-07-20T02:51:12;2.47;;;2.27;;
4555;SDS011;2290;48.674;9.018;2023-07-20T02:53:39;2.60;;;1.97;;
4555;SDS011;2290;48.674;9.018;2023-07-20T02:56:05;4.30;;;2.20;;
4555;SDS011;2290;48.674;9.018;2023-07-20T02:58:30;4.07;;;2.30;;
4555;SDS011;2290;48.674;9.018;2023-07-20T03:00:56;3.47;;;2.13;;
4555;SDS011;2290;48.674;9.018;2023-07-20T03:03:21;3.80;;;2.30;;
4555;SDS011;2290;48.674;9.018;2023-07-20T03:05:47;3.53;;;2.40;;
4555;SDS011;2290;48.674;9.018;2023-07-20T03:08:19;3.57;;;2.03;;
4555;SDS011;2290;48.674;9.018;2023-07-20T03:10:44;2.77;;;2.27;;
4555;SDS011;2290;48.674;9.018;2023-07-20T03:13:11;4.10;;;2.77;;
4555;SDS011;2290;48.674;9.018;2023-07-20T03:15:37;2.90;;;1.97;;
4555;SDS011;2290;48.674;9.018;2023-07-20T03:18:03;4.20;;;2.53;;
4555;SDS011;2290;48.674;9.018;2023-07-20T03:20:29;2.80;;;2.33;;
4555;SDS011;2290;48.674;9.018;2023-07-20T03:22:56;3.17;;;2.20;;
4555;SDS011;2290;48.674;9.018;2023-07-20T03:25:22;3.70;;;2.30;;
4555;SDS011;2290;48.674;9.018;2023-07-20T03:27:48;4.50;;;2.50;;
4555;SDS011;2290;48.674;9.018;2023-07-20T03:30:13;2.93;;;2.37;;
4555;SDS011;2290;48.674;9.018;2023-07-20T03:32:39;3.63;;;2.10;;
4555;SDS011;2290;48.674;9.018;2023-07-20T03:35:05;2.93;;;2.50;;
4555;SDS011;2290;48.674;9.018;2023-07-20T03:37:31;3.80;;;2.47;;
4555;SDS011;2290;48.674;9.018;2023-07-20T03:39:57;3.43;;;2.00;;
4555;SDS011;2290;48.674;9.018;2023-07-20T03:42:22;3.50;;;2.23;;
4555;SDS011;2290;48.674;9.018;2023-07-20T03:44:48;3.03;;;2.17;;
4555;SDS011;2290;48.674;9.018;2023-07-20T03:47:14;3.93;;;2.33;;
4555;SDS011;2290;48.674;9.018;2023-07-20T03:49:39;3.20;;;2.60;;
4555;SDS011;2290;48.674;9.018;2023-07-20T03:52:05;3.40;;;2.43;;
4555;SDS011;2290;48.674;9.018;2023-07-20T03:54:30;2.93;;;2.33;;
4555;SDS011;2290;48.674;9.018;2023-07-20T03:56:56;3.00;;;2.30;;
4555;SDS011;2290;48.674;9.018;2023-07-20T03:59:22;2.47;;;2.13;;
4555;SDS011;2290;48.674;9.018;2023-07-20T04:01:47;2.63;;;2.30;;
4555;SDS011;2290;48.674;9.018;2023-07-20T04:04:15;3.17;;;2.40;;
4555;SDS011;2290;48.674;9.018;2023-07-20T04:06:41;2.73;;;2.20;;
4555;SDS011;2290;48.674;9.018;2023-07-20T04:09:09;4.90;;;2.67;;
4555;SDS011;2290;48.674;9.018;2023-07-20T04:11:37;6.90;;;2.43;;
4555;SDS011;2290;48.674;9.018;2023-07-20T04:14:03;3.30;;;2.37;;
4555;SDS011;2290;48.674;9.018;2023-07-20T04:16:29;2.97;;;2.27;;
4555;SDS011;2290;48.674;9.018;2023-07-20T04:18:55;2.43;;;2.23;;
4555;SDS011;2290;48.674;9.018;2023-07-20T04:21:21;3.27;;;2.47;;
4555;SDS011;2290;48.674;9.018;2023-07-20T04:23:47;4.13;;;2.43;;
4555;SDS011;2290;48.674;9.018;2023-07-20T04:26:13;2.70;;;2.03;;
4555;SDS011;2290;48.674;9.018;2023-07-20T04:28:39;3.13;;;2.20;;
4555;SDS011;2290;48.674;9.018;2023-07-20T04:31:10;3.20;;;2.40;;
4555;SDS011;2290;48.674;9.018;2023-07-20T04:33:37;3.10;;;2.37;;
4555;SDS011;2290;48.674;9.018;2023-07-20T04:36:03;3.37;;;2.30;;
4555;SDS011;2290;48.674;9.018;2023-07-20T04:38:29;5.20;;;2.63;;
4555;SDS011;2290;48.674;9.018;2023-07-20T04:40:55;3.60;;;2.13;;
4555;SDS011;2290;48.674;9.018;2023-07-20T04:43:21;3.80;;;2.50;;
4555;SDS011;2290;48.674;9.018;2023-07-20T04:45:46;7.37;;;2.60;;
4555;SDS011;2290;48.674;9.018;2023-07-20T04:48:15;3.60;;;2.70;;
4555;SDS011;2290;48.674;9.018;2023-07-20T04:50:44;2.80;;;2.23;;
4555;SDS011;2290;48.674;9.018;2023-07-20T04:53:13;3.20;;;2.23;;
4555;SDS011;2290;48.674;9.018;2023-07-20T04:55:40;2.73;;;2.17;;
4555;SDS011;2290;48.674;9.018;2023-07-20T04:58:15;4.67;;;2.30;;
4555;SDS011;2290;48.674;9.018;2023-07-20T05:00:42;4.33;;;2.40;;
4555;SDS011;2290;48.674;9.018;2023-07-20T05:03:07;3.20;;;2.20;;
4555;SDS011;2290;48.674;9.018;2023-07-20T05:05:33;3.60;;;2.20;;
4555;SDS011;2290;48.674;9.018;2023-07-20T05:07:59;3.63;;;2.40;;
4555;SDS011;2290;48.674;9.018;2023-07-20T05:10:24;3.60;;;2.43;;
4555;SDS011;2290;48.674;9.018;2023-07-20T05:12:50;2.97;;;2.40;;
4555;SDS011;2290;48.674;9.018;2023-07-20T05:15:15;2.90;;;2.30;;
4555;SDS011;2290;48.674;9.018;2023-07-20T05:17:41;4.13;;;2.30;;
4555;SDS011;2290;48.674;9.018;2023-07-20T05:20:07;2.93;;;2.40;;
4555;SDS011;2290;48.674;9.018;2023-07-20T05:22:35;4.57;;;2.20;;
4555;SDS011;2290;48.674;9.018;2023-07-20T05:25:01;6.40;;;2.60;;
4555;SDS011;2290;48.674;9.018;2023-07-20T05:27:27;2.83;;;2.20;;
4555;SDS011;2290;48.674;9.018;2023-07-20T05:29:52;2.70;;;2.50;;
4555;SDS011;2290;48.674;9.018;2023-07-20T05:32:18;3.07;;;2.20;;
4555;SDS011;2290;48.674;9.018;2023-07-20T05:34:44;2.70;;;2.13;;
4555;SDS011;2290;48.674;9.018;2023-07-20T05:37:09;4.10;;;2.10;;
4555;SDS011;2290;48.674;9.018;2023-07-20T05:39:35;2.40;;;1.83;;
4555;SDS011;2290;48.674;9.018;2023-07-20T05:42:00;2.20;;;1.90;;
4555;SDS011;2290;48.674;9.018;2023-07-20T05:44:26;4.63;;;2.40;;
4555;SDS011;2290;48.674;9.018;2023-07-20T05:46:51;2.63;;;1.80;;
4555;SDS011;2290;48.674;9.018;2023-07-20T05:49:17;6.40;;;2.43;;
4555;SDS011;2290;48.674;9.018;2023-07-20T05:51:42;2.70;;;2.37;;
4555;SDS011;2290;48.674;9.018;2023-07-20T05:54:08;2.70;;;2.20;;
4555;SDS011;2290;48.674;9.018;2023-07-20T05:56:34;3.20;;;2.40;;
4555;SDS011;2290;48.674;9.018;2023-07-20T05:58:59;5.00;;;2.57;;
4555;SDS011;2290;48.674;9.018;2023-07-20T06:01:25;2.67;;;2.20;;
4555;SDS011;2290;48.674;9.018;2023-07-20T06:03:52;3.70;;;2.80;;
4555;SDS011;2290;48.674;9.018;2023-07-20T06:06:18;2.27;;;2.07;;
4555;SDS011;2290;48.674;9.018;2023-07-20T06:08:44;4.57;;;2.07;;
4555;SDS011;2290;48.674;9.018;2023-07-20T06:11:09;2.83;;;2.50;;
4555;SDS011;2290;48.674;9.018;2023-07-20T06:13:35;3.10;;;2.40;;
4555;SDS011;2290;48.674;9.018;2023-07-20T06:16:01;3.67;;;2.20;;
4555;SDS011;2290;48.674;9.018;2023-07-20T06:18:26;5.57;;;2.37;;
4555;SDS011;2290;48.674;9.018;2023-07-20T06:20:52;3.00;;;2.20;;
4555;SDS011;2290;48.674;9.018;2023-07-20T06:23:21;7.10;;;2.70;;
4555;SDS011;2290;48.674;9.018;2023-07-20T06:25:46;4.33;;;2.23;;
4555;SDS011;2290;48.674;9.018;2023-07-20T06:28:12;3.13;;;1.90;;
4555;SDS011;2290;48.674;9.018;2023-07-20T06:30:38;2.53;;;2.03;;
4555;SDS011;2290;48.674;9.018;2023-07-20T06:33:04;3.83;;;2.43;;
4555;SDS011;2290;48.674;9.018;2023-07-20T06:35:30;3.40;;;2.30;;
4555;SDS011;2290;48.674;9.018;2023-07-20T06:37:56;4.40;;;2.07;;
4555;SDS011;2290;48.674;9.018;2023-07-20T06:40:22;5.00;;;2.40;;
4555;SDS011;2290;48.674;9.018;2023-07-20T06:42:48;4.60;;;2.43;;
4555;SDS011;2290;48.674;9.018;2023-07-20T06:45:13;4.03;;;2.13;;
4555;SDS011;2290;48.674;9.018;2023-07-20T06:47:39;2.53;;;1.93;;
4555;SDS011;2290;48.674;9.018;2023-07-20T06:50:08;3.10;;;2.30;;
4555;SDS011;2290;48.674;9.018;2023-07-20T06:52:36;2.73;;;2.10;;
4555;SDS011;2290;48.674;9.018;2023-07-20T06:55:02;2.70;;;2.40;;
4555;SDS011;2290;48.674;9.018;2023-07-20T06:57:29;3.27;;;2.10;;
4555;SDS011;2290;48.674;9.018;2023-07-20T06:59:55;3.00;;;2.30;;
4555;SDS011;2290;48.674;9.018;2023-07-20T07:02:20;3.00;;;2.20;;
4555;SDS011;2290;48.674;9.018;2023-07-20T07:04:46;6.33;;;2.27;;
4555;SDS011;2290;48.674;9.018;2023-07-20T07:07:15;5.50;;;2.70;;
4555;SDS011;2290;48.674;9.018;2023-07-20T07:09:41;3.03;;;2.53;;
4555;SDS011;2290;48.674;9.018;2023-07-20T07:12:07;3.93;;;2.43;;
4555;SDS011;2290;48.674;9.018;2023-07-20T07:14:34;6.00;;;2.30;;
4555;SDS011;2290;48.674;9.018;2023-07-20T07:17:00;5.37;;;2.60;;
4555;SDS011;2290;48.674;9.018;2023-07-20T07:19:25;3.73;;;2.60;;
4555;SDS011;2290;48.674;9.018;2023-07-20T07:21:51;3.80;;;2.40;;
4555;SDS011;2290;48.674;9.018;2023-07-20T07:24:17;3.80;;;2.30;;
4555;SDS011;2290;48.674;9.018;2023-07-20T07:26:42;3.13;;;2.60;;
4555;SDS011;2290;48.674;9.018;2023-07-20T07:29:08;3.00;;;2.40;;
4555;SDS011;2290;48.674;9.018;2023-07-20T07:31:34;4.60;;;2.30;;
4555;SDS011;2290;48.674;9.018;2023-07-20T07:34:03;4.60;;;2.60;;
4555;SDS011;2290;48.674;9.018;2023-07-20T07:36:30;3.00;;;2.57;;
4555;SDS011;2290;48.674;9.018;2023-07-20T07:38:56;5.37;;;2.40;;
4555;SDS011;2290;48.674;9.018;2023-07-20T07:41:22;4.53;;;2.87;;
4555;SDS011;2290;48.674;9.018;2023-07-20T07:43:48;5.33;;;3.90;;
4555;SDS011;2290;48.674;9.018;2023-07-20T07:46:13;7.30;;;3.20;;
4555;SDS011;2290;48.674;9.018;2023-07-20T07:48:39;3.40;;;2.80;;
4555;SDS011;2290;48.674;9.018;2023-07-20T07:51:05;4.67;;;2.93;;
4555;SDS011;2290;48.674;9.018;2023-07-20T07:53:31;3.77;;;2.60;;
4555;SDS011;2290;48.674;9.018;2023-07-20T07:55:57;6.33;;;3.33;;
4555;SDS011;2290;48.674;9.018;2023-07-20T07:58:23;2.90;;;2.40;;
4555;SDS011;2290;48.674;9.018;2023-07-20T08:00:50;4.50;;;2.70;;
4555;SDS011;2290;48.674;9.018;2023-07-20T08:03:15;4.20;;;2.90;;
4555;SDS011;2290;48.674;9.018;2023-07-20T08:05:41;6.27;;;2.70;;
4555;SDS011;2290;48.674;9.018;2023-07-20T08:08:07;3.33;;;2.40;;
4555;SDS011;2290;48.674;9.018;2023-07-20T08:10:33;4.40;;;2.97;;
4555;SDS011;2290;48.674;9.018;2023-07-20T08:12:59;3.80;;;2.70;;
4555;SDS011;2290;48.674;9.018;2023-07-20T08:15:24;3.90;;;2.40;;
4555;SDS011;2290;48.674;9.018;2023-07-20T08:17:50;3.10;;;2.37;;
4555;SDS011;2290;48.674;9.018;2023-07-20T08:20:17;4.10;;;2.50;;
4555;SDS011;2290;48.674;9.018;2023-07-20T08:22:43;2.30;;;2.07;;
4555;SDS011;2290;48.674;9.018;2023-07-20T08:25:09;4.53;;;2.67;;
4555;SDS011;2290;48.674;9.018;2023-07-20T08:27:35;4.03;;;2.50;;
4555;SDS011;2290;48.674;9.018;2023-07-20T08:30:01;3.03;;;2.40;;
4555;SDS011;2290;48.674;9.018;2023-07-20T08:32:29;3.10;;;2.50;;
4555;SDS011;2290;48.674;9.018;2023-07-20T08:34:57;4.20;;;2.80;;
4555;SDS011;2290;48.674;9.018;2023-07-20T08:37:23;2.90;;;2.20;;
4555;SDS011;2290;48.674;9.018;2023-07-20T08:39:49;4.40;;;2.83;;
4555;SDS011;2290;48.674;9.018;2023-07-20T08:42:14;6.53;;;2.57;;
4555;SDS011;2290;48.674;9.018;2023-07-20T08:44:43;4.13;;;2.40;;
4555;SDS011;2290;48.674;9.018;2023-07-20T08:47:10;5.30;;;2.80;;
4555;SDS011;2290;48.674;9.018;2023-07-20T08:49:38;3.50;;;2.77;;
4555;SDS011;2290;48.674;9.018;2023-07-20T08:52:04;4.73;;;2.67;;
4555;SDS011;2290;48.674;9.018;2023-07-20T08:54:31;3.90;;;2.37;;
4555;SDS011;2290;48.674;9.018;2023-07-20T08:56:57;3.70;;;2.77;;
4555;SDS011;2290;48.674;9.018;2023-07-20T08:59:28;3.40;;;2.33;;
4555;SDS011;2290;48.674;9.018;2023-07-20T09:01:55;3.10;;;2.33;;
4555;SDS011;2290;48.674;9.018;2023-07-20T09:04:24;3.93;;;2.20;;
4555;SDS011;2290;48.674;9.018;2023-07-20T09:06:53;3.07;;;2.40;;
4555;SDS011;2290;48.674;9.018;2023-07-20T09:09:18;3.80;;;2.57;;
4555;SDS011;2290;48.674;9.018;2023-07-20T09:11:47;3.50;;;2.40;;
4555;SDS011;2290;48.674;9.018;2023-07-20T09:14:14;4.87;;;2.23;;
4555;SDS011;2290;48.674;9.018;2023-07-20T09:16:55;4.80;;;2.60;;
4555;SDS011;2290;48.674;9.018;2023-07-20T09:19:21;4.03;;;2.53;;
4555;SDS011;2290;48.674;9.018;2023-07-20T09:21:49;2.77;;;1.97;;
4555;SDS011;2290;48.674;9.018;2023-07-20T09:24:19;4.97;;;2.20;;
4555;SDS011;2290;48.674;9.018;2023-07-20T09:26:46;2.70;;;2.27;;
4555;SDS011;2290;48.674;9.018;2023-07-20T09:29:19;4.10;;;2.20;;
4555;SDS011;2290;48.674;9.018;2023-07-20T09:32:03;4.27;;;2.20;;
4555;SDS011;2290;48.674;9.018;2023-07-20T09:34:30;5.57;;;2.20;;
4555;SDS011;2290;48.674;9.018;2023-07-20T09:36:59;2.40;;;1.83;;
4555;SDS011;2290;48.674;9.018;2023-07-20T09:39:27;2.43;;;2.10;;
4555;SDS011;2290;48.674;9.018;2023-07-20T09:41:55;4.70;;;2.00;;
4555;SDS011;2290;48.674;9.018;2023-07-20T09:44:27;2.70;;;1.83;;
4555;SDS011;2290;48.674;9.018;2023-07-20T09:46:53;2.80;;;1.80;;
4555;SDS011;2290;48.674;9.018;2023-07-20T09:49:22;2.27;;;1.93;;
4555;SDS011;2290;48.674;9.018;2023-07-20T09:51:47;2.53;;;2.20;;
4555;SDS011;2290;48.674;9.018;2023-07-20T09:54:14;2.50;;;1.83;;
4555;SDS011;2290;48.674;9.018;2023-07-20T09:56:40;2.10;;;1.73;;
4555;SDS011;2290;48.674;9.018;2023-07-20T09:59:08;2.80;;;1.90;;
4555;SDS011;2290;48.674;9.018;2023-07-20T10:01:34;2.07;;;1.83;;
4555;SDS011;2290;48.674;9.018;2023-07-20T10:04:03;2.47;;;1.97;;
4555;SDS011;2290;48.674;9.018;2023-07-20T10:06:32;3.17;;;1.87;;
4555;SDS011;2290;48.674;9.018;2023-07-20T10:09:03;2.37;;;2.10;;
4555;SDS011;2290;48.674;9.018;2023-07-20T10:11:30;3.40;;;1.83;;
4555;SDS011;2290;48.674;9.018;2023-07-20T10:13:59;2.90;;;2.13;;
4555;SDS011;2290;48.674;9.018;2023-07-20T10:16:29;3.40;;;2.00;;
4555;SDS011;2290;48.674;9.018;2023-07-20T10:19:07;2.63;;;1.80;;
4555;SDS011;2290;48.674;9.018;2023-07-20T10:21:49;3.00;;;2.33;;
4555;SDS011;2290;48.674;9.018;2023-07-20T10:24:22;2.43;;;1.90;;
4555;SDS011;2290;48.674;9.018;2023-07-20T10:26:49;3.43;;;2.00;;
4555;SDS011;2290;48.674;9.018;2023-07-20T10:29:16;1.90;;;1.63;;
4555;SDS011;2290;48.674;9.018;2023-07-20T10:31:43;2.43;;;1.97;;
4555;SDS011;2290;48.674;9.018;2023-07-20T10:34:09;2.03;;;1.70;;
4555;SDS011;2290;48.674;9.018;2023-07-20T10:36:35;2.87;;;2.13;;
4555;SDS011;2290;48.674;9.018;2023-07-20T10:39:24;4.07;;;2.03;;
4555;SDS011;2290;48.674;9.018;2023-07-20T10:42:08;2.23;;;1.80;;
4555;SDS011;2290;48.674;9.018;2023-07-20T10:44:36;2.40;;;1.80;;
4555;SDS011;2290;48.674;9.018;2023-07-20T10:47:13;2.13;;;1.87;;
4555;SDS011;2290;48.674;9.018;2023-07-20T10:49:58;5.53;;;1.97;;
4555;SDS011;2290;48.674;9.018;2023-07-20T10:52:25;2.17;;;1.83;;
4555;SDS011;2290;48.674;9.018;2023-07-20T10:55:09;4.20;;;1.93;;
4555;SDS011;2290;48.674;9.018;2023-07-20T10:57:44;2.70;;;1.80;;
4555;SDS011;2290;48.674;9.018;2023-07-20T11:00:56;3.27;;;1.90;;
4555;SDS011;2290;48.674;9.018;2023-07-20T11:03:28;4.30;;;1.97;;
4555;SDS011;2290;48.674;9.018;2023-07-20T11:05:58;2.07;;;1.80;;
4555;SDS011;2290;48.674;9.018;2023-07-20T11:08:39;5.13;;;1.73;;
4555;SDS011;2290;48.674;9.018;2023-07-20T11:11:21;3.23;;;2.40;;
4555;SDS011;2290;48.674;9.018;2023-07-20T11:14:04;3.00;;;2.17;;
4555;SDS011;2290;48.674;9.018;2023-07-20T11:16:52;4.10;;;1.80;;
4555;SDS011;2290;48.674;9.018;2023-07-20T11:19:18;2.23;;;1.87;;
4555;SDS011;2290;48.674;9.018;2023-07-20T11:21:58;2.40;;;2.00;;
4555;SDS011;2290;48.674;9.018;2023-07-20T11:24:29;3.70;;;1.77;;
4555;SDS011;2290;48.674;9.018;2023-07-20T11:26:57;3.13;;;2.07;;
4555;SDS011;2290;48.674;9.018;2023-07-20T11:29:23;2.50;;;1.87;;
4555;SDS011;2290;48.674;9.018;2023-07-20T11:31:50;2.50;;;1.80;;
4555;SDS011;2290;48.674;9.018;2023-07-20T11:34:18;4.23;;;1.97;;
4555;SDS011;2290;48.674;9.018;2023-07-20T11:36:46;2.07;;;1.60;;
4555;SDS011;2290;48.674;9.018;2023-07-20T11:39:17;2.23;;;1.70;;
4555;SDS011;2290;48.674;9.018;2023-07-20T11:41:51;1.90;;;1.60;;
4555;SDS011;2290;48.674;9.018;2023-07-20T11:44:19;2.20;;;1.87;;
4555;SDS011;2290;48.674;9.018;2023-07-20T11:46:51;1.83;;;1.63;;
4555;SDS011;2290;48.674;9.018;2023-07-20T11:49:30;2.40;;;1.77;;
4555;SDS011;2290;48.674;9.018;2023-07-20T11:52:04;1.87;;;1.50;;
4555;SDS011;2290;48.674;9.018;2023-07-20T11:54:35;2.73;;;1.90;;
4555;SDS011;2290;48.674;9.018;2023-07-20T11:57:03;2.90;;;1.87;;
4555;SDS011;2290;48.674;9.018;2023-07-20T11:59:30;2.57;;;1.80;;
4555;SDS011;2290;48.674;9.018;2023-07-20T12:01:56;1.90;;;1.80;;
4555;SDS011;2290;48.674;9.018;2023-07-20T12:04:23;1.53;;;1.43;;
4555;SDS011;2290;48.674;9.018;2023-07-20T12:06:48;3.00;;;2.10;;
4555;SDS011;2290;48.674;9.018;2023-07-20T12:09:14;2.23;;;1.77;;
4555;SDS011;2290;48.674;9.018;2023-07-20T12:11:42;2.17;;;1.93;;
4555;SDS011;2290;48.674;9.018;2023-07-20T12:14:12;2.60;;;1.87;;
4555;SDS011;2290;48.674;9.018;2023-07-20T12:16:37;2.20;;;2.00;;
4555;SDS011;2290;48.674;9.018;2023-07-20T12:19:07;2.60;;;2.00;;
4555;SDS011;2290;48.674;9.018;2023-07-20T12:21:34;3.07;;;2.00;;
4555;SDS011;2290;48.674;9.018;2023-07-20T12:24:02;1.90;;;1.70;;
4555;SDS011;2290;48.674;9.018;2023-07-20T12:26:29;2.47;;;1.60;;
4555;SDS011;2290;48.674;9.018;2023-07-20T12:28:55;2.40;;;1.80;;
4555;SDS011;2290;48.674;9.018;2023-07-20T12:31:21;2.30;;;1.60;;
4555;SDS011;2290;48.674;9.018;2023-07-20T12:33:49;2.70;;;1.70;;
4555;SDS011;2290;48.674;9.018;2023-07-20T12:36:15;2.00;;;1.60;;
4555;SDS011;2290;48.674;9.018;2023-07-20T12:38:41;3.03;;;1.60;;
4555;SDS011;2290;48.674;9.018;2023-07-20T12:41:07;3.50;;;2.00;;
4555;SDS011;2290;48.674;9.018;2023-07-20T12:43:37;2.90;;;1.97;;
4555;SDS011;2290;48.674;9.018;2023-07-20T12:46:03;2.83;;;1.90;;
4555;SDS011;2290;48.674;9.018;2023-07-20T12:48:29;3.00;;;2.00;;
4555;SDS011;2290;48.674;9.018;2023-07-20T12:50:54;2.00;;;1.70;;
4555;SDS011;2290;48.674;9.018;2023-07-20T12:53:21;2.90;;;1.93;;
4555;SDS011;2290;48.674;9.018;2023-07-20T12:55:47;2.90;;;2.00;;
4555;SDS011;2290;48.674;9.018;2023-07-20T12:58:12;1.80;;;1.53;;
4555;SDS011;2290;48.674;9.018;2023-07-20T13:00:38;2.10;;;1.90;;
4555;SDS011;2290;48.674;9.018;2023-07-20T13:03:04;1.97;;;1.63;;
4555;SDS011;2290;48.674;9.018;2023-07-20T13:05:31;2.30;;;1.70;;
4555;SDS011;2290;48.674;9.018;2023-07-20T13:07:57;2.30;;;1.90;;
4555;SDS011;2290;48.674;9.018;2023-07-20T13:10:23;2.30;;;1.63;;
4555;SDS011;2290;48.674;9.018;2023-07-20T13:12:49;2.20;;;1.80;;
4555;SDS011;2290;48.674;9.018;2023-07-20T13:15:15;2.40;;;2.00;;
4555;SDS011;2290;48.674;9.018;2023-07-20T13:17:42;2.70;;;1.87;;
4555;SDS011;2290;48.674;9.018;2023-07-20T13:20:08;3.03;;;2.00;;
4555;SDS011;2290;48.674;9.018;2023-07-20T13:22:36;2.10;;;1.80;;
4555;SDS011;2290;48.674;9.018;2023-07-20T13:25:02;3.07;;;1.77;;
4555;SDS011;2290;48.674;9.018;2023-07-20T13:27:28;3.40;;;2.00;;
4555;SDS011;2290;48.674;9.018;2023-07-20T13:29:55;2.00;;;1.77;;
4555;SDS011;2290;48.674;9.018;2023-07-20T13:32:21;2.10;;;1.80;;
4555;SDS011;2290;48.674;9.018;2023-07-20T13:34:47;2.00;;;1.70;;
4555;SDS011;2290;48.674;9.018;2023-07-20T13:37:13;2.40;;;1.70;;
4555;SDS011;2290;48.674;9.018;2023-07-20T13:39:41;3.73;;;2.00;;
4555;SDS011;2290;48.674;9.018;2023-07-20T13:42:07;2.63;;;1.60;;
4555;SDS011;2290;48.674;9.018;2023-07-20T13:44:34;2.20;;;1.77;;
4555;SDS011;2290;48.674;9.018;2023-07-20T13:47:00;2.90;;;1.77;;
4555;SDS011;2290;48.674;9.018;2023-07-20T13:49:26;5.47;;;1.70;;
4555;SDS011;2290;48.674;9.018;2023-07-20T13:51:52;2.73;;;1.90;;
4555;SDS011;2290;48.674;9.018;2023-07-20T13:54:18;2.47;;;1.80;;
4555;SDS011;2290;48.674;9.018;2023-07-20T13:56:43;1.97;;;1.80;;
4555;SDS011;2290;48.674;9.018;2023-07-20T13:59:09;2.67;;;2.03;;
4555;SDS011;2290;48.674;9.018;2023-07-20T14:01:36;2.30;;;2.00;;
4555;SDS011;2290;48.674;9.018;2023-07-20T14:04:02;2.00;;;1.70;;
4555;SDS011;2290;48.674;9.018;2023-07-20T14:06:29;2.20;;;1.63;;
4555;SDS011;2290;48.674;9.018;2023-07-20T14:08:57;2.60;;;1.83;;
4555;SDS011;2290;48.674;9.018;2023-07-20T14:11:23;2.20;;;2.00;;
4555;SDS011;2290;48.674;9.018;2023-07-20T14:13:53;3.50;;;1.80;;
4555;SDS011;2290;48.674;9.018;2023-07-20T14:16:20;2.10;;;1.67;;
4555;SDS011;2290;48.674;9.018;2023-07-20T14:18:46;2.43;;;2.03;;
4555;SDS011;2290;48.674;9.018;2023-07-20T14:21:13;2.20;;;2.00;;
4555;SDS011;2290;48.674;9.018;2023-07-20T14:23:44;2.77;;;2.00;;
4555;SDS011;2290;48.674;9.018;2023-07-20T14:26:14;3.03;;;1.70;;
4555;SDS011;2290;48.674;9.018;2023-07-20T14:28:40;2.33;;;1.90;;
4555;SDS011;2290;48.674;9.018;2023-07-20T14:31:06;2.33;;;1.80;;
4555;SDS011;2290;48.674;9.018;2023-07-20T14:33:31;3.20;;;1.90;;
4555;SDS011;2290;48.674;9.018;2023-07-20T14:35:58;2.07;;;1.60;;
4555;SDS011;2290;48.674;9.018;2023-07-20T14:38:26;2.40;;;1.93;;
4555;SDS011;2290;48.674;9.018;2023-07-20T14:40:52;2.90;;;1.93;;
4555;SDS011;2290;48.674;9.018;2023-07-20T14:43:19;2.07;;;1.83;;
4555;SDS011;2290;48.674;9.018;2023-07-20T14:45:44;2.47;;;1.90;;
4555;SDS011;2290;48.674;9.018;2023-07-20T14:48:10;3.40;;;1.90;;
4555;SDS011;2290;48.674;9.018;2023-07-20T14:50:37;2.43;;;1.70;;
4555;SDS011;2290;48.674;9.018;2023-07-20T14:53:04;2.00;;;1.90;;
4555;SDS011;2290;48.674;9.018;2023-07-20T14:55:30;2.33;;;2.00;;
4555;SDS011;2290;48.674;9.018;2023-07-20T14:57:56;3.80;;;2.50;;
4555;SDS011;2290;48.674;9.018;2023-07-20T15:00:22;2.20;;;1.87;;
4555;SDS011;2290;48.674;9.018;2023-07-20T15:02:47;1.97;;;1.60;;
4555;SDS011;2290;48.674;9.018;2023-07-20T15:05:23;2.27;;;1.90;;
4555;SDS011;2290;48.674;9.018;2023-07-20T15:07:49;2.33;;;1.90;;
4555;SDS011;2290;48.674;9.018;2023-07-20T15:10:15;2.47;;;1.80;;
4555;SDS011;2290;48.674;9.018;2023-07-20T15:12:41;2.10;;;1.70;;
4555;SDS011;2290;48.674;9.018;2023-07-20T15:15:13;2.67;;;2.03;;
4555;SDS011;2290;48.674;9.018;2023-07-20T15:17:40;1.97;;;1.67;;
4555;SDS011;2290;48.674;9.018;2023-07-20T15:20:11;2.90;;;1.90;;
4555;SDS011;2290;48.674;9.018;2023-07-20T15:22:39;3.07;;;2.20;;
4555;SDS011;2290;48.674;9.018;2023-07-20T15:25:07;4.27;;;1.80;;
4555;SDS011;2290;48.674;9.018;2023-07-20T15:27:37;2.70;;;1.90;;